sensor_id;sensor_type;location;lat;lon;timestamp;pressure;altitude;pressure_sealevel;temperature;humidity
75039;BME280;63609;49.992;14.512;2023-08-06T00:03:30;97205.34;;;13.53;77.86
75039;BME280;63609;49.992;14.512;2023-08-06T00:05:58;97208.75;;;13.26;78.50
75039;BME280;63609;49.992;14.512;2023-08-06T00:08:25;97205.59;;;13.59;76.99
75039;BME280;63609;49.992;14.512;2023-08-06T00:10:52;97207.09;;;14.10;74.62
75039;BME280;63609;49.992;14.512;2023-08-06T00:13:19;97213.25;;;13.83;75.59
75039;BME280;63609;49.992;14.512;2023-08-06T00:15:45;97206.69;;;13.85;75.86
75039;BME280;63609;49.992;14.512;2023-08-06T00:18:12;97190.25;;;13.31;76.79
75039;BME280;63609;49.992;14.512;2023-08-06T00:20:39;97188.53;;;13.23;78.29
75039;BME280;63609;49.992;14.512;2023-08-06T00:23:07;97183.44;;;13.50;77.11
75039;BME280;63609;49.992;14.512;2023-08-06T00:25:35;97179.28;;;13.26;77.87
75039;BME280;63609;49.992;14.512;2023-08-06T00:28:03;97175.00;;;13.32;77.85
75039;BME280;63609;49.992;14.512;2023-08-06T00:30:31;97171.31;;;12.67;80.26
75039;BME280;63609;49.992;14.512;2023-08-06T00:32:58;97168.00;;;12.80;80.52
75039;BME280;63609;49.992;14.512;2023-08-06T00:35:25;97162.47;;;12.67;80.81
75039;BME280;63609;49.992;14.512;2023-08-06T00:37:52;97161.19;;;13.13;79.11
75039;BME280;63609;49.992;14.512;2023-08-06T00:40:20;97166.09;;;13.10;78.38
75039;BME280;63609;49.992;14.512;2023-08-06T00:42:48;97163.09;;;12.69;81.28
75039;BME280;63609;49.992;14.512;2023-08-06T00:45:15;97164.53;;;13.01;79.59
75039;BME280;63609;49.992;14.512;2023-08-06T00:47:45;97169.59;;;12.59;80.89
75039;BME280;63609;49.992;14.512;2023-08-06T00:50:12;97161.84;;;13.01;79.35
75039;BME280;63609;49.992;14.512;2023-08-06T00:52:40;97166.25;;;13.23;78.32
75039;BME280;63609;49.992;14.512;2023-08-06T00:55:07;97159.44;;;13.42;77.45
75039;BME280;63609;49.992;14.512;2023-08-06T00:57:34;97158.47;;;12.92;79.92
75039;BME280;63609;49.992;14.512;2023-08-06T01:00:02;97156.69;;;12.99;78.91
75039;BME280;63609;49.992;14.512;2023-08-06T01:02:29;97153.38;;;13.76;76.00
75039;BME280;63609;49.992;14.512;2023-08-06T01:04:56;97146.91;;;13.28;77.63
75039;BME280;63609;49.992;14.512;2023-08-06T01:07:37;97145.56;;;13.81;75.48
75039;BME280;63609;49.992;14.512;2023-08-06T01:10:22;97136.53;;;13.89;75.22
75039;BME280;63609;49.992;14.512;2023-08-06T01:13:11;97140.66;;;13.63;75.64
75039;BME280;63609;49.992;14.512;2023-08-06T01:15:49;97139.16;;;13.82;75.33
75039;BME280;63609;49.992;14.512;2023-08-06T01:18:17;97124.72;;;13.83;74.97
75039;BME280;63609;49.992;14.512;2023-08-06T01:20:45;97117.75;;;13.89;74.62
75039;BME280;63609;49.992;14.512;2023-08-06T01:23:12;97127.47;;;13.68;74.94
75039;BME280;63609;49.992;14.512;2023-08-06T01:25:56;97126.78;;;13.81;74.93
75039;BME280;63609;49.992;14.512;2023-08-06T01:31:37;97131.41;;;12.87;78.45
75039;BME280;63609;49.992;14.512;2023-08-06T01:34:09;97133.31;;;13.29;77.37
75039;BME280;63609;49.992;14.512;2023-08-06T01:36:37;97134.28;;;13.21;77.46
75039;BME280;63609;49.992;14.512;2023-08-06T01:39:05;97130.50;;;13.16;77.52
75039;BME280;63609;49.992;14.512;2023-08-06T01:41:32;97121.13;;;13.48;76.46
75039;BME280;63609;49.992;14.512;2023-08-06T01:44:00;97125.28;;;13.29;76.90
75039;BME280;63609;49.992;14.512;2023-08-06T01:46:27;97131.34;;;13.38;77.00
75039;BME280;63609;49.992;14.512;2023-08-06T01:48:54;97127.00;;;12.79;79.07
75039;BME280;63609;49.992;14.512;2023-08-06T01:51:21;97127.06;;;12.86;78.48
75039;BME280;63609;49.992;14.512;2023-08-06T01:53:48;97131.25;;;12.74;79.82
75039;BME280;63609;49.992;14.512;2023-08-06T01:56:15;97130.97;;;13.05;78.43
75039;BME280;63609;49.992;14.512;2023-08-06T01:58:42;97118.59;;;12.82;79.29
75039;BME280;63609;49.992;14.512;2023-08-06T02:01:09;97130.50;;;13.16;77.90
75039;BME280;63609;49.992;14.512;2023-08-06T02:03:36;97126.34;;;13.35;77.73
75039;BME280;63609;49.992;14.512;2023-08-06T02:06:03;97119.28;;;13.48;76.57
75039;BME280;63609;49.992;14.512;2023-08-06T02:08:32;97119.41;;;13.19;77.23
75039;BME280;63609;49.992;14.512;2023-08-06T02:10:59;97124.59;;;13.42;76.52
75039;BME280;63609;49.992;14.512;2023-08-06T02:13:26;97111.63;;;13.24;76.93
75039;BME280;63609;49.992;14.512;2023-08-06T02:15:53;97124.31;;;13.58;75.87
75039;BME280;63609;49.992;14.512;2023-08-06T02:18:19;97119.88;;;13.22;76.97
75039;BME280;63609;49.992;14.512;2023-08-06T02:20:59;97113.53;;;13.09;77.76
75039;BME280;63609;49.992;14.512;2023-08-06T02:23:28;97104.19;;;12.69;79.51
75039;BME280;63609;49.992;14.512;2023-08-06T02:25:59;97118.84;;;13.23;77.82
75039;BME280;63609;49.992;14.512;2023-08-06T02:28:28;97112.13;;;13.56;76.35
75039;BME280;63609;49.992;14.512;2023-08-06T02:30:55;97119.72;;;13.73;75.65
75039;BME280;63609;49.992;14.512;2023-08-06T02:33:22;97116.34;;;13.43;76.94
75039;BME280;63609;49.992;14.512;2023-08-06T02:35:48;97116.50;;;12.99;78.62
75039;BME280;63609;49.992;14.512;2023-08-06T02:38:16;97104.47;;;12.74;79.40
75039;BME280;63609;49.992;14.512;2023-08-06T02:40:46;97099.84;;;12.68;79.85
75039;BME280;63609;49.992;14.512;2023-08-06T02:43:13;97097.03;;;12.54;81.03
75039;BME280;63609;49.992;14.512;2023-08-06T02:45:41;97097.19;;;12.68;80.28
75039;BME280;63609;49.992;14.512;2023-08-06T02:48:08;97089.06;;;12.61;80.59
75039;BME280;63609;49.992;14.512;2023-08-06T02:50:42;97089.38;;;12.87;79.84
75039;BME280;63609;49.992;14.512;2023-08-06T02:53:09;97079.25;;;12.68;80.02
75039;BME280;63609;49.992;14.512;2023-08-06T02:55:37;97083.22;;;12.21;81.23
75039;BME280;63609;49.992;14.512;2023-08-06T02:58:10;97086.50;;;12.38;80.84
75039;BME280;63609;49.992;14.512;2023-08-06T03:00:43;97084.53;;;12.61;80.18
75039;BME280;63609;49.992;14.512;2023-08-06T03:03:11;97080.47;;;12.66;79.64
75039;BME280;63609;49.992;14.512;2023-08-06T03:05:53;97086.00;;;12.79;79.23
75039;BME280;63609;49.992;14.512;2023-08-06T03:08:29;97077.28;;;13.13;77.38
75039;BME280;63609;49.992;14.512;2023-08-06T03:10:57;97079.03;;;12.84;79.24
75039;BME280;63609;49.992;14.512;2023-08-06T03:13:24;97066.88;;;12.82;78.90
75039;BME280;63609;49.992;14.512;2023-08-06T03:15:56;97068.06;;;13.01;78.24
75039;BME280;63609;49.992;14.512;2023-08-06T03:18:24;97057.41;;;12.86;78.97
75039;BME280;63609;49.992;14.512;2023-08-06T03:20:54;97059.84;;;12.81;78.74
75039;BME280;63609;49.992;14.512;2023-08-06T03:23:21;97051.63;;;12.82;79.28
75039;BME280;63609;49.992;14.512;2023-08-06T03:25:48;97054.25;;;13.18;77.66
75039;BME280;63609;49.992;14.512;2023-08-06T03:28:16;97054.69;;;12.79;78.49
75039;BME280;63609;49.992;14.512;2023-08-06T03:30:45;97050.91;;;12.95;78.63
75039;BME280;63609;49.992;14.512;2023-08-06T03:33:13;97056.00;;;12.90;78.48
75039;BME280;63609;49.992;14.512;2023-08-06T03:35:40;97049.72;;;12.76;78.75
75039;BME280;63609;49.992;14.512;2023-08-06T03:38:07;97055.34;;;12.67;79.08
75039;BME280;63609;49.992;14.512;2023-08-06T03:40:35;97045.94;;;13.13;77.79
75039;BME280;63609;49.992;14.512;2023-08-06T03:43:02;97041.25;;;12.58;79.62
75039;BME280;63609;49.992;14.512;2023-08-06T03:45:29;97039.97;;;12.54;79.51
75039;BME280;63609;49.992;14.512;2023-08-06T03:47:56;97038.91;;;12.91;78.11
75039;BME280;63609;49.992;14.512;2023-08-06T03:50:24;97036.81;;;12.86;78.33
75039;BME280;63609;49.992;14.512;2023-08-06T03:52:51;97037.97;;;12.99;78.46
75039;BME280;63609;49.992;14.512;2023-08-06T03:55:18;97029.16;;;13.26;76.84
75039;BME280;63609;49.992;14.512;2023-08-06T03:57:45;97039.19;;;13.39;76.54
75039;BME280;63609;49.992;14.512;2023-08-06T04:00:12;97033.84;;;13.17;76.50
75039;BME280;63609;49.992;14.512;2023-08-06T04:02:50;97026.75;;;12.88;78.36
75039;BME280;63609;49.992;14.512;2023-08-06T04:05:17;97019.34;;;12.90;78.11
75039;BME280;63609;49.992;14.512;2023-08-06T04:07:44;97025.41;;;13.20;77.13
75039;BME280;63609;49.992;14.512;2023-08-06T04:10:11;97010.88;;;12.87;78.54
75039;BME280;63609;49.992;14.512;2023-08-06T04:12:38;97010.00;;;12.65;79.45
75039;BME280;63609;49.992;14.512;2023-08-06T04:15:06;97007.59;;;12.70;79.67
75039;BME280;63609;49.992;14.512;2023-08-06T04:17:34;97000.31;;;12.43;80.51
75039;BME280;63609;49.992;14.512;2023-08-06T04:20:01;96999.03;;;13.03;78.58
75039;BME280;63609;49.992;14.512;2023-08-06T04:22:29;97002.53;;;13.03;78.32
75039;BME280;63609;49.992;14.512;2023-08-06T04:24:57;97000.28;;;12.79;79.13
75039;BME280;63609;49.992;14.512;2023-08-06T04:27:24;97002.31;;;12.55;79.93
75039;BME280;63609;49.992;14.512;2023-08-06T04:29:51;97007.03;;;12.75;79.96
75039;BME280;63609;49.992;14.512;2023-08-06T04:32:18;97003.44;;;12.68;80.00
75039;BME280;63609;49.992;14.512;2023-08-06T04:34:49;96998.28;;;13.09;78.26
75039;BME280;63609;49.992;14.512;2023-08-06T04:37:16;96998.69;;;12.84;79.44
75039;BME280;63609;49.992;14.512;2023-08-06T04:39:43;96995.47;;;12.53;80.66
75039;BME280;63609;49.992;14.512;2023-08-06T04:42:10;96985.69;;;12.81;79.58
75039;BME280;63609;49.992;14.512;2023-08-06T04:44:37;96983.88;;;12.67;80.01
75039;BME280;63609;49.992;14.512;2023-08-06T04:47:04;96970.97;;;12.99;78.65
75039;BME280;63609;49.992;14.512;2023-08-06T04:49:31;96978.78;;;12.93;78.81
75039;BME280;63609;49.992;14.512;2023-08-06T04:51:58;96974.44;;;12.71;79.66
75039;BME280;63609;49.992;14.512;2023-08-06T04:54:25;96980.56;;;13.08;78.67
75039;BME280;63609;49.992;14.512;2023-08-06T04:56:52;96978.91;;;12.85;79.17
75039;BME280;63609;49.992;14.512;2023-08-06T04:59:19;96971.13;;;12.90;79.40
75039;BME280;63609;49.992;14.512;2023-08-06T05:01:45;96969.75;;;13.22;78.08
75039;BME280;63609;49.992;14.512;2023-08-06T05:04:12;96977.56;;;12.96;78.67
75039;BME280;63609;49.992;14.512;2023-08-06T05:06:39;96963.81;;;12.78;79.58
75039;BME280;63609;49.992;14.512;2023-08-06T05:09:07;96970.06;;;12.85;79.49
75039;BME280;63609;49.992;14.512;2023-08-06T05:11:34;96972.47;;;12.58;80.54
75039;BME280;63609;49.992;14.512;2023-08-06T05:14:00;96973.88;;;12.54;81.47
75039;BME280;63609;49.992;14.512;2023-08-06T05:16:28;96975.53;;;12.77;80.29
75039;BME280;63609;49.992;14.512;2023-08-06T05:18:55;96975.91;;;12.52;81.96
75039;BME280;63609;49.992;14.512;2023-08-06T05:21:23;96983.56;;;12.55;81.29
75039;BME280;63609;49.992;14.512;2023-08-06T05:23:50;96974.19;;;12.66;80.47
75039;BME280;63609;49.992;14.512;2023-08-06T05:26:17;96975.94;;;12.38;81.90
75039;BME280;63609;49.992;14.512;2023-08-06T05:28:46;96979.88;;;12.20;82.67
75039;BME280;63609;49.992;14.512;2023-08-06T05:31:13;96975.25;;;12.14;82.98
75039;BME280;63609;49.992;14.512;2023-08-06T05:33:39;96969.84;;;12.44;82.23
75039;BME280;63609;49.992;14.512;2023-08-06T05:36:06;96963.16;;;12.54;81.32
75039;BME280;63609;49.992;14.512;2023-08-06T05:38:34;96966.50;;;12.20;82.95
75039;BME280;63609;49.992;14.512;2023-08-06T05:41:01;96968.75;;;12.38;82.04
75039;BME280;63609;49.992;14.512;2023-08-06T05:43:28;96961.66;;;12.30;82.60
75039;BME280;63609;49.992;14.512;2023-08-06T05:45:57;96950.63;;;12.19;82.50
75039;BME280;63609;49.992;14.512;2023-08-06T05:48:24;96952.38;;;12.69;81.01
75039;BME280;63609;49.992;14.512;2023-08-06T05:50:52;96951.97;;;13.15;79.01
75039;BME280;63609;49.992;14.512;2023-08-06T05:53:18;96965.03;;;12.75;80.58
75039;BME280;63609;49.992;14.512;2023-08-06T05:55:45;96972.97;;;12.90;79.44
75039;BME280;63609;49.992;14.512;2023-08-06T05:58:12;96967.56;;;12.83;80.09
75039;BME280;63609;49.992;14.512;2023-08-06T06:00:39;96955.69;;;12.92;79.92
75039;BME280;63609;49.992;14.512;2023-08-06T06:03:06;96946.47;;;12.52;80.92
75039;BME280;63609;49.992;14.512;2023-08-06T06:05:33;96949.41;;;12.79;79.47
75039;BME280;63609;49.992;14.512;2023-08-06T06:08:00;96961.53;;;13.03;80.08
75039;BME280;63609;49.992;14.512;2023-08-06T06:10:26;96954.03;;;12.70;80.49
75039;BME280;63609;49.992;14.512;2023-08-06T06:12:53;96958.63;;;13.19;79.04
75039;BME280;63609;49.992;14.512;2023-08-06T06:15:20;96959.59;;;12.69;80.86
75039;BME280;63609;49.992;14.512;2023-08-06T06:17:47;96953.97;;;13.06;79.32
75039;BME280;63609;49.992;14.512;2023-08-06T06:20:14;96954.41;;;12.88;79.68
75039;BME280;63609;49.992;14.512;2023-08-06T06:22:41;96960.75;;;12.81;80.31
75039;BME280;63609;49.992;14.512;2023-08-06T06:25:08;96957.34;;;12.93;80.17
75039;BME280;63609;49.992;14.512;2023-08-06T06:27:36;96955.41;;;13.09;79.51
75039;BME280;63609;49.992;14.512;2023-08-06T06:30:03;96944.81;;;13.01;80.10
75039;BME280;63609;49.992;14.512;2023-08-06T06:32:30;96954.66;;;12.93;80.11
75039;BME280;63609;49.992;14.512;2023-08-06T06:34:57;96950.41;;;13.06;80.10
75039;BME280;63609;49.992;14.512;2023-08-06T06:37:25;96950.38;;;12.99;80.29
75039;BME280;63609;49.992;14.512;2023-08-06T06:39:52;96944.81;;;13.22;79.69
75039;BME280;63609;49.992;14.512;2023-08-06T06:42:18;96953.75;;;13.08;80.23
75039;BME280;63609;49.992;14.512;2023-08-06T06:44:50;96951.72;;;13.10;80.03
75039;BME280;63609;49.992;14.512;2023-08-06T06:47:17;96955.97;;;13.26;79.42
75039;BME280;63609;49.992;14.512;2023-08-06T06:49:44;96957.16;;;12.95;80.73
75039;BME280;63609;49.992;14.512;2023-08-06T06:52:11;96962.13;;;12.98;80.26
75039;BME280;63609;49.992;14.512;2023-08-06T06:54:38;96954.59;;;13.36;80.14
75039;BME280;63609;49.992;14.512;2023-08-06T06:57:06;96953.59;;;12.88;81.12
75039;BME280;63609;49.992;14.512;2023-08-06T06:59:33;96943.75;;;13.44;79.68
75039;BME280;63609;49.992;14.512;2023-08-06T07:02:00;96950.47;;;13.34;78.95
75039;BME280;63609;49.992;14.512;2023-08-06T07:04:45;96955.63;;;13.35;79.90
75039;BME280;63609;49.992;14.512;2023-08-06T07:07:31;96954.72;;;13.56;78.40
75039;BME280;63609;49.992;14.512;2023-08-06T07:10:18;96949.13;;;13.51;78.31
75039;BME280;63609;49.992;14.512;2023-08-06T07:13:04;96943.19;;;13.28;79.79
75039;BME280;63609;49.992;14.512;2023-08-06T07:15:50;96945.66;;;13.22;78.31
75039;BME280;63609;49.992;14.512;2023-08-06T07:18:35;96940.97;;;13.31;78.61
75039;BME280;63609;49.992;14.512;2023-08-06T07:21:21;96947.66;;;12.92;80.13
75039;BME280;63609;49.992;14.512;2023-08-06T07:24:07;96944.25;;;13.33;79.49
75039;BME280;63609;49.992;14.512;2023-08-06T07:26:52;96946.28;;;13.03;80.31
75039;BME280;63609;49.992;14.512;2023-08-06T07:29:38;96940.88;;;13.18;79.83
75039;BME280;63609;49.992;14.512;2023-08-06T07:32:24;96943.31;;;13.41;79.36
75039;BME280;63609;49.992;14.512;2023-08-06T07:35:10;96929.22;;;13.32;79.22
75039;BME280;63609;49.992;14.512;2023-08-06T07:37:57;96941.69;;;13.18;79.13
75039;BME280;63609;49.992;14.512;2023-08-06T07:40:43;96927.75;;;13.30;78.18
75039;BME280;63609;49.992;14.512;2023-08-06T07:43:28;96928.78;;;13.29;80.10
75039;BME280;63609;49.992;14.512;2023-08-06T07:46:14;96932.69;;;13.61;79.01
75039;BME280;63609;49.992;14.512;2023-08-06T07:49:00;96932.38;;;13.42;79.74
75039;BME280;63609;49.992;14.512;2023-08-06T07:51:46;96934.09;;;13.22;79.71
75039;BME280;63609;49.992;14.512;2023-08-06T07:54:31;96931.38;;;13.43;79.42
75039;BME280;63609;49.992;14.512;2023-08-06T07:57:17;96926.53;;;13.32;79.32
75039;BME280;63609;49.992;14.512;2023-08-06T08:00:03;96925.88;;;13.65;79.30
75039;BME280;63609;49.992;14.512;2023-08-06T08:02:57;96918.34;;;13.40;79.13
75039;BME280;63609;49.992;14.512;2023-08-06T08:05:43;96919.47;;;13.25;80.75
75039;BME280;63609;49.992;14.512;2023-08-06T08:08:29;96926.88;;;13.57;79.75
75039;BME280;63609;49.992;14.512;2023-08-06T08:11:15;96926.81;;;13.44;80.00
75039;BME280;63609;49.992;14.512;2023-08-06T08:14:01;96916.69;;;13.39;79.37
75039;BME280;63609;49.992;14.512;2023-08-06T08:16:48;96913.28;;;13.59;79.55
75039;BME280;63609;49.992;14.512;2023-08-06T08:19:33;96913.47;;;13.57;79.00
75039;BME280;63609;49.992;14.512;2023-08-06T08:22:19;96917.47;;;13.33;79.60
75039;BME280;63609;49.992;14.512;2023-08-06T08:25:05;96917.88;;;13.37;79.78
75039;BME280;63609;49.992;14.512;2023-08-06T08:27:50;96915.03;;;13.79;78.11
75039;BME280;63609;49.992;14.512;2023-08-06T08:30:36;96926.41;;;13.40;79.18
75039;BME280;63609;49.992;14.512;2023-08-06T08:33:22;96913.25;;;13.17;79.84
75039;BME280;63609;49.992;14.512;2023-08-06T08:36:08;96912.69;;;13.29;79.34
75039;BME280;63609;49.992;14.512;2023-08-06T08:38:56;96911.31;;;13.11;80.24
75039;BME280;63609;49.992;14.512;2023-08-06T08:41:42;96907.75;;;12.76;80.53
75039;BME280;63609;49.992;14.512;2023-08-06T08:44:28;96914.31;;;13.02;80.47
75039;BME280;63609;49.992;14.512;2023-08-06T08:47:15;96906.38;;;13.08;80.18
75039;BME280;63609;49.992;14.512;2023-08-06T08:50:02;96903.81;;;13.00;80.18
75039;BME280;63609;49.992;14.512;2023-08-06T08:52:50;96891.75;;;12.83;80.76
75039;BME280;63609;49.992;14.512;2023-08-06T08:55:38;96897.03;;;12.76;80.76
75039;BME280;63609;49.992;14.512;2023-08-06T08:58:24;96892.88;;;13.02;79.77
75039;BME280;63609;49.992;14.512;2023-08-06T09:01:10;96880.16;;;12.76;81.17
75039;BME280;63609;49.992;14.512;2023-08-06T09:03:56;96882.69;;;12.84;81.05
75039;BME280;63609;49.992;14.512;2023-08-06T09:06:46;96887.88;;;12.92;81.29
75039;BME280;63609;49.992;14.512;2023-08-06T09:09:34;96881.88;;;12.62;80.99
75039;BME280;63609;49.992;14.512;2023-08-06T09:12:21;96882.75;;;12.97;80.69
75039;BME280;63609;49.992;14.512;2023-08-06T09:15:07;96878.81;;;12.93;80.52
75039;BME280;63609;49.992;14.512;2023-08-06T09:17:53;96880.72;;;13.27;79.80
75039;BME280;63609;49.992;14.512;2023-08-06T09:20:39;96879.16;;;13.11;79.73
75039;BME280;63609;49.992;14.512;2023-08-06T09:23:31;96880.44;;;13.15;80.00
75039;BME280;63609;49.992;14.512;2023-08-06T09:26:18;96883.81;;;13.24;79.65
75039;BME280;63609;49.992;14.512;2023-08-06T09:29:08;96874.63;;;13.40;79.88
75039;BME280;63609;49.992;14.512;2023-08-06T09:31:54;96875.59;;;13.32;80.54
75039;BME280;63609;49.992;14.512;2023-08-06T09:34:46;96874.75;;;13.25;79.43
75039;BME280;63609;49.992;14.512;2023-08-06T09:37:36;96887.53;;;13.30;79.43
75039;BME280;63609;49.992;14.512;2023-08-06T09:40:32;96880.06;;;13.53;78.93
75039;BME280;63609;49.992;14.512;2023-08-06T09:43:18;96869.00;;;13.35;78.29
75039;BME280;63609;49.992;14.512;2023-08-06T09:46:11;96863.44;;;13.36;78.27
75039;BME280;63609;49.992;14.512;2023-08-06T09:48:59;96866.97;;;13.37;78.37
75039;BME280;63609;49.992;14.512;2023-08-06T09:51:45;96872.56;;;13.07;78.94
75039;BME280;63609;49.992;14.512;2023-08-06T09:54:32;96864.94;;;13.11;79.34
75039;BME280;63609;49.992;14.512;2023-08-06T09:57:23;96875.13;;;12.94;79.31
75039;BME280;63609;49.992;14.512;2023-08-06T10:00:11;96868.38;;;13.05;79.64
75039;BME280;63609;49.992;14.512;2023-08-06T10:03:00;96863.97;;;13.18;78.54
75039;BME280;63609;49.992;14.512;2023-08-06T10:05:47;96865.78;;;13.46;78.02
75039;BME280;63609;49.992;14.512;2023-08-06T10:08:33;96860.97;;;13.35;78.43
75039;BME280;63609;49.992;14.512;2023-08-06T10:11:23;96855.88;;;13.40;77.63
75039;BME280;63609;49.992;14.512;2023-08-06T10:14:13;96854.09;;;13.67;78.09
75039;BME280;63609;49.992;14.512;2023-08-06T10:17:00;96846.56;;;13.90;77.09
75039;BME280;63609;49.992;14.512;2023-08-06T10:19:47;96848.19;;;13.84;76.50
75039;BME280;63609;49.992;14.512;2023-08-06T10:22:34;96848.84;;;14.00;76.72
75039;BME280;63609;49.992;14.512;2023-08-06T10:25:19;96847.13;;;13.72;77.25
75039;BME280;63609;49.992;14.512;2023-08-06T10:28:12;96847.44;;;14.04;77.92
75039;BME280;63609;49.992;14.512;2023-08-06T10:30:58;96836.94;;;13.54;76.29
75039;BME280;63609;49.992;14.512;2023-08-06T10:33:47;96842.72;;;13.51;76.36
75039;BME280;63609;49.992;14.512;2023-08-06T10:36:33;96842.44;;;14.01;75.34
75039;BME280;63609;49.992;14.512;2023-08-06T10:39:20;96849.34;;;14.23;74.84
75039;BME280;63609;49.992;14.512;2023-08-06T10:42:22;96833.16;;;13.90;75.57
75039;BME280;63609;49.992;14.512;2023-08-06T10:45:17;96834.59;;;13.99;74.25
75039;BME280;63609;49.992;14.512;2023-08-06T10:48:04;96829.13;;;13.60;75.39
75039;BME280;63609;49.992;14.512;2023-08-06T10:50:49;96839.00;;;14.13;74.33
75039;BME280;63609;49.992;14.512;2023-08-06T10:53:36;96836.22;;;13.74;74.71
75039;BME280;63609;49.992;14.512;2023-08-06T10:56:25;96832.00;;;14.19;73.57
75039;BME280;63609;49.992;14.512;2023-08-06T10:59:15;96828.31;;;14.53;71.84
75039;BME280;63609;49.992;14.512;2023-08-06T11:02:01;96827.47;;;14.59;72.46
75039;BME280;63609;49.992;14.512;2023-08-06T11:04:48;96832.66;;;14.54;71.75
75039;BME280;63609;49.992;14.512;2023-08-06T11:07:35;96838.16;;;14.06;73.41
75039;BME280;63609;49.992;14.512;2023-08-06T11:10:21;96837.22;;;13.73;74.56
75039;BME280;63609;49.992;14.512;2023-08-06T11:13:06;96846.50;;;13.29;77.17
75039;BME280;63609;49.992;14.512;2023-08-06T11:15:53;96848.53;;;12.92;78.98
75039;BME280;63609;49.992;14.512;2023-08-06T11:18:40;96851.25;;;12.99;78.45
75039;BME280;63609;49.992;14.512;2023-08-06T11:21:27;96845.56;;;13.09;78.77
75039;BME280;63609;49.992;14.512;2023-08-06T11:24:14;96839.88;;;13.18;79.46
75039;BME280;63609;49.992;14.512;2023-08-06T11:26:42;96841.75;;;12.97;79.92
75039;BME280;63609;49.992;14.512;2023-08-06T11:29:11;96846.50;;;13.29;79.88
75039;BME280;63609;49.992;14.512;2023-08-06T11:31:38;96844.97;;;13.48;78.52
75039;BME280;63609;49.992;14.512;2023-08-06T11:34:05;96853.19;;;13.40;78.08
75039;BME280;63609;49.992;14.512;2023-08-06T11:36:40;96855.53;;;13.21;79.08
75039;BME280;63609;49.992;14.512;2023-08-06T11:39:08;96861.63;;;13.09;79.12
75039;BME280;63609;49.992;14.512;2023-08-06T11:41:36;96868.28;;;12.64;80.77
75039;BME280;63609;49.992;14.512;2023-08-06T11:44:05;96863.88;;;12.77;80.05
75039;BME280;63609;49.992;14.512;2023-08-06T11:46:50;96862.00;;;12.50;78.97
75039;BME280;63609;49.992;14.512;2023-08-06T11:49:18;96866.53;;;12.28;79.73
75039;BME280;63609;49.992;14.512;2023-08-06T11:51:49;96866.94;;;12.46;79.76
75039;BME280;63609;49.992;14.512;2023-08-06T11:54:16;96856.09;;;12.82;78.41
75039;BME280;63609;49.992;14.512;2023-08-06T11:56:43;96858.16;;;12.59;77.96
75039;BME280;63609;49.992;14.512;2023-08-06T11:59:12;96859.88;;;12.95;77.99
75039;BME280;63609;49.992;14.512;2023-08-06T12:01:39;96865.22;;;12.95;76.78
75039;BME280;63609;49.992;14.512;2023-08-06T12:04:06;96864.22;;;12.96;77.28
75039;BME280;63609;49.992;14.512;2023-08-06T12:06:42;96863.41;;;13.71;74.86
75039;BME280;63609;49.992;14.512;2023-08-06T12:09:10;96857.97;;;13.16;75.75
75039;BME280;63609;49.992;14.512;2023-08-06T12:11:37;96859.16;;;13.07;77.87
75039;BME280;63609;49.992;14.512;2023-08-06T12:14:04;96849.69;;;13.11;76.93
75039;BME280;63609;49.992;14.512;2023-08-06T12:16:33;96841.69;;;13.59;75.71
75039;BME280;63609;49.992;14.512;2023-08-06T12:19:00;96837.28;;;13.93;75.36
75039;BME280;63609;49.992;14.512;2023-08-06T12:21:27;96833.56;;;14.00;74.62
75039;BME280;63609;49.992;14.512;2023-08-06T12:23:54;96837.78;;;14.23;74.49
75039;BME280;63609;49.992;14.512;2023-08-06T12:26:21;96834.88;;;14.18;74.17
75039;BME280;63609;49.992;14.512;2023-08-06T12:28:48;96835.63;;;13.98;74.40
75039;BME280;63609;49.992;14.512;2023-08-06T12:31:16;96840.47;;;14.36;74.15
75039;BME280;63609;49.992;14.512;2023-08-06T12:33:44;96836.84;;;13.89;75.04
75039;BME280;63609;49.992;14.512;2023-08-06T12:36:11;96840.97;;;13.85;75.74
75039;BME280;63609;49.992;14.512;2023-08-06T12:38:38;96844.19;;;14.35;75.15
75039;BME280;63609;49.992;14.512;2023-08-06T12:41:04;96836.78;;;14.37;74.02
75039;BME280;63609;49.992;14.512;2023-08-06T12:43:32;96839.03;;;14.60;73.80
75039;BME280;63609;49.992;14.512;2023-08-06T12:45:58;96829.13;;;14.54;74.55
75039;BME280;63609;49.992;14.512;2023-08-06T12:48:25;96834.28;;;15.01;72.60
75039;BME280;63609;49.992;14.512;2023-08-06T12:50:52;96832.13;;;15.43;71.80
75039;BME280;63609;49.992;14.512;2023-08-06T12:53:19;96833.47;;;14.68;71.74
75039;BME280;63609;49.992;14.512;2023-08-06T12:55:47;96835.09;;;15.02;72.39
75039;BME280;63609;49.992;14.512;2023-08-06T12:58:14;96827.84;;;15.16;71.39
75039;BME280;63609;49.992;14.512;2023-08-06T13:00:41;96828.84;;;15.28;70.41
75039;BME280;63609;49.992;14.512;2023-08-06T13:03:08;96833.31;;;15.54;70.37
75039;BME280;63609;49.992;14.512;2023-08-06T13:05:35;96832.47;;;15.60;70.03
75039;BME280;63609;49.992;14.512;2023-08-06T13:08:03;96834.75;;;15.56;69.75
75039;BME280;63609;49.992;14.512;2023-08-06T13:10:30;96838.84;;;15.72;68.82
75039;BME280;63609;49.992;14.512;2023-08-06T13:12:58;96845.38;;;15.89;68.89
75039;BME280;63609;49.992;14.512;2023-08-06T13:15:24;96839.38;;;15.87;68.92
75039;BME280;63609;49.992;14.512;2023-08-06T13:17:51;96852.53;;;15.57;69.90
75039;BME280;63609;49.992;14.512;2023-08-06T13:20:18;96848.06;;;15.45;69.05
75039;BME280;63609;49.992;14.512;2023-08-06T13:22:46;96849.31;;;15.42;69.31
75039;BME280;63609;49.992;14.512;2023-08-06T13:25:17;96844.13;;;15.41;68.96
75039;BME280;63609;49.992;14.512;2023-08-06T13:27:44;96845.00;;;15.21;68.22
75039;BME280;63609;49.992;14.512;2023-08-06T13:30:12;96839.72;;;15.59;69.28